Terminal Aerodrome Forecast
Issued by NWS

Home | Current Version | Previous Version | Text Only | Print | Product List | Glossary On
Versions: 1 2 3 4 5 6 7 8 9 10 11 12 13 14 15 16
000
FTUS45 KRIW 072321
TAFCPR
TAF
KCPR 072321Z 0800/0824 04006KT P6SM VCTS SCT050CB BKN080
     FM080300 03007KT P6SM VCSH SCT050 BKN100
     FM080600 04007KT P6SM BKN050
     FM081900 07009KT P6SM VCTS SCT050CB BKN080=

USA.gov is the U.S. government's official web portal to all federal, state and local government web resources and services.